createdAt,value
2022-09-28T12:35:33.560Z,6.454545
2022-09-28T12:40:33.654Z,7.000000
2022-09-28T12:45:16.796Z,8.333333
2022-09-28T12:50:38.697Z,9.000000
2022-09-28T12:55:21.250Z,7.000000
2022-09-28T13:00:23.746Z,6.000000
2022-09-28T13:05:26.382Z,8.400000
2022-09-28T13:10:29.418Z,10.000000
2022-09-28T13:15:31.961Z,7.333333
2022-09-28T13:20:34.636Z,6.000000
2022-09-28T13:25:17.152Z,9.333333
2022-09-28T13:30:19.359Z,11.000000
2022-09-28T13:35:21.618Z,7.666667
2022-09-28T13:40:24.769Z,6.000000
2022-09-28T13:45:27.057Z,7.800000
2022-09-28T13:50:29.613Z,9.000000
2022-09-28T13:55:32.091Z,9.666667
2022-09-28T14:00:34.443Z,10.000000
2022-09-28T14:05:16.684Z,10.000000
2022-09-28T14:10:19.134Z,10.000000
2022-09-28T14:15:22.023Z,12.666667
2022-09-28T14:20:24.374Z,14.000000
2022-09-28T14:25:28.456Z,10.400000
2022-09-28T14:30:30.020Z,8.000000
2022-09-28T14:35:32.304Z,9.333333
2022-09-28T14:40:35.070Z,10.000000
2022-09-28T14:45:16.756Z,8.000000
2022-09-28T14:50:19.117Z,7.000000
2022-09-28T14:55:21.543Z,9.000000
2022-09-28T15:00:23.750Z,10.000000
2022-09-28T15:05:26.414Z,10.600000
2022-09-28T15:10:28.646Z,11.000000
2022-09-28T15:15:30.697Z,11.000000
2022-09-28T15:20:33.822Z,11.000000
2022-09-28T15:25:16.106Z,9.000000
2022-09-28T15:30:18.547Z,8.000000
2022-09-28T15:35:21.438Z,6.000000
2022-09-28T15:40:24.849Z,5.000000
2022-09-28T15:45:26.245Z,6.200000
2022-09-28T15:50:29.383Z,7.000000
2022-09-28T15:55:33.899Z,8.333333
2022-09-28T16:00:35.382Z,9.000000
2022-09-28T16:05:17.525Z,8.333333
2022-09-28T16:10:21.167Z,8.000000
2022-09-28T16:15:23.140Z,11.214286
2022-09-28T16:20:25.663Z,13.000000
2022-09-28T16:25:27.937Z,8.200000
2022-09-28T16:30:30.270Z,5.000000
2022-09-28T16:35:32.953Z,3.000000
2022-09-28T16:40:35.211Z,2.000000
2022-09-28T16:45:17.790Z,6.666667
2022-09-28T16:50:20.544Z,9.000000
2022-09-28T16:55:39.483Z,9.000000
2022-09-28T17:00:24.792Z,9.000000
2022-09-28T17:05:27.844Z,7.200000
2022-09-28T17:10:30.635Z,6.000000
2022-09-28T17:15:33.135Z,7.333333
2022-09-28T17:20:35.992Z,8.000000
2022-09-28T17:25:18.427Z,8.666667
2022-09-28T17:30:23.751Z,9.000000
2022-09-28T17:35:25.097Z,7.714286
2022-09-28T17:40:25.638Z,7.000000
2022-09-28T17:45:28.133Z,8.800000
2022-09-28T17:50:30.671Z,10.000000
2022-09-28T17:55:33.386Z,8.666667
2022-09-28T18:00:36.025Z,8.000000
2022-09-28T18:05:18.842Z,8.000000
2022-09-28T18:10:21.347Z,8.000000
2022-09-28T18:15:25.319Z,8.000000
2022-09-28T18:20:27.202Z,8.000000
2022-09-28T18:25:29.201Z,8.000000
2022-09-28T18:30:31.341Z,8.000000
2022-09-28T18:35:34.416Z,14.666667
2022-09-28T18:40:16.210Z,18.000000
2022-09-28T18:45:19.136Z,25.333333
2022-09-28T18:50:21.442Z,29.000000
2022-09-28T18:55:24.098Z,32.214286
2022-09-28T19:00:26.061Z,34.000000
2022-09-28T19:05:30.032Z,24.400000
2022-09-28T19:10:31.538Z,18.000000
2022-09-28T19:15:33.835Z,12.000000
2022-09-28T19:20:15.980Z,9.000000
2022-09-28T19:25:18.221Z,9.666667
2022-09-28T19:30:20.679Z,10.000000
2022-09-28T19:35:24.565Z,10.000000
2022-09-28T19:40:25.762Z,10.000000
2022-09-28T19:45:28.150Z,12.400000
2022-09-28T19:50:31.031Z,14.000000
2022-09-28T19:55:33.551Z,12.000000
2022-09-28T20:00:16.734Z,11.000000
2022-09-28T20:05:18.406Z,10.333333
2022-09-28T20:10:20.674Z,10.000000
2022-09-28T20:15:23.020Z,8.714286
2022-09-28T20:20:25.559Z,8.000000
2022-09-28T20:25:28.782Z,8.000000
2022-09-28T20:30:30.611Z,8.000000
2022-09-28T20:35:33.472Z,8.666667
2022-09-28T20:40:35.369Z,9.000000
2022-09-28T20:45:17.338Z,8.333333
2022-09-28T20:50:19.967Z,8.000000
2022-09-28T20:55:23.485Z,6.714286
2022-09-28T21:00:25.024Z,6.000000
2022-09-28T21:05:27.495Z,6.600000
2022-09-28T21:10:29.822Z,7.000000
2022-09-28T21:15:32.081Z,7.000000
2022-09-28T21:20:34.687Z,7.000000
2022-09-28T21:25:18.325Z,8.333333
2022-09-28T21:30:20.150Z,9.000000
2022-09-28T21:35:22.661Z,8.357143
2022-09-28T21:40:24.967Z,8.000000
2022-09-28T21:45:26.965Z,8.000000
2022-09-28T21:50:29.682Z,8.000000
2022-09-28T21:55:31.928Z,7.333333
2022-09-28T22:00:34.460Z,7.000000
2022-09-28T22:05:17.146Z,7.666667
2022-09-28T22:10:18.297Z,8.000000
2022-09-28T22:15:20.687Z,7.333333
2022-09-28T22:20:23.771Z,7.000000
2022-09-28T22:25:26.039Z,12.400000
2022-09-28T22:30:28.531Z,16.000000
2022-09-28T22:35:31.333Z,13.600000
2022-09-28T22:40:33.914Z,12.000000
2022-09-28T22:45:16.376Z,8.666667
2022-09-28T22:50:18.928Z,7.000000
2022-09-28T22:55:21.822Z,8.333333
2022-09-28T23:00:23.890Z,9.000000
2022-09-28T23:05:26.713Z,8.400000
2022-09-28T23:10:28.882Z,8.000000
2022-09-28T23:15:32.425Z,8.000000
2022-09-28T23:20:33.790Z,8.000000
2022-09-28T23:25:16.060Z,8.666667
2022-09-28T23:30:19.408Z,9.000000
2022-09-28T23:35:20.757Z,8.333333
2022-09-28T23:40:23.190Z,8.000000
2022-09-28T23:45:25.871Z,8.600000
2022-09-28T23:50:28.069Z,9.000000
2022-09-28T23:55:30.474Z,8.400000
